sensor_id;sensor_type;location;lat;lon;timestamp;temperature;humidity
63960;DHT22;50136;51.374;0.096;2023-08-06T00:09:11;13.30;99.90
63960;DHT22;50136;51.374;0.096;2023-08-06T00:19:13;13.20;99.90
63960;DHT22;50136;51.374;0.096;2023-08-06T00:29:16;13.20;99.90
63960;DHT22;50136;51.374;0.096;2023-08-06T00:39:18;13.10;99.90
63960;DHT22;50136;51.374;0.096;2023-08-06T00:49:22;13.10;99.90
63960;DHT22;50136;51.374;0.096;2023-08-06T00:59:24;13.10;99.90
63960;DHT22;50136;51.374;0.096;2023-08-06T01:09:34;13.10;99.90
63960;DHT22;50136;51.374;0.096;2023-08-06T01:19:37;13.00;99.90
63960;DHT22;50136;51.374;0.096;2023-08-06T01:29:43;13.00;99.90
63960;DHT22;50136;51.374;0.096;2023-08-06T01:39:46;12.80;99.90
63960;DHT22;50136;51.374;0.096;2023-08-06T01:49:52;12.70;99.90
63960;DHT22;50136;51.374;0.096;2023-08-06T01:59:54;12.60;99.90
63960;DHT22;50136;51.374;0.096;2023-08-06T02:09:58;12.60;99.90
63960;DHT22;50136;51.374;0.096;2023-08-06T02:20:00;12.60;99.90
63960;DHT22;50136;51.374;0.096;2023-08-06T02:30:04;12.60;99.90
63960;DHT22;50136;51.374;0.096;2023-08-06T02:40:07;12.50;99.90
63960;DHT22;50136;51.374;0.096;2023-08-06T02:50:11;12.30;99.90
63960;DHT22;50136;51.374;0.096;2023-08-06T03:00:13;12.20;99.90
63960;DHT22;50136;51.374;0.096;2023-08-06T03:10:16;12.00;99.90
63960;DHT22;50136;51.374;0.096;2023-08-06T03:20:18;11.90;99.90
63960;DHT22;50136;51.374;0.096;2023-08-06T03:30:22;11.80;99.90
63960;DHT22;50136;51.374;0.096;2023-08-06T03:40:24;11.70;99.90
63960;DHT22;50136;51.374;0.096;2023-08-06T03:50:27;11.60;99.90
63960;DHT22;50136;51.374;0.096;2023-08-06T04:00:29;11.50;99.90
63960;DHT22;50136;51.374;0.096;2023-08-06T04:10:33;11.50;99.90
63960;DHT22;50136;51.374;0.096;2023-08-06T04:20:35;11.40;99.90
63960;DHT22;50136;51.374;0.096;2023-08-06T04:30:45;11.40;99.90
63960;DHT22;50136;51.374;0.096;2023-08-06T04:40:47;11.40;99.90
63960;DHT22;50136;51.374;0.096;2023-08-06T04:50:50;11.30;99.90
63960;DHT22;50136;51.374;0.096;2023-08-06T05:00:53;11.20;99.90
63960;DHT22;50136;51.374;0.096;2023-08-06T05:10:56;11.20;99.90
63960;DHT22;50136;51.374;0.096;2023-08-06T05:20:58;11.20;99.90
63960;DHT22;50136;51.374;0.096;2023-08-06T05:31:04;11.20;99.90
63960;DHT22;50136;51.374;0.096;2023-08-06T05:41:06;11.30;99.90
63960;DHT22;50136;51.374;0.096;2023-08-06T05:51:10;11.40;99.90
63960;DHT22;50136;51.374;0.096;2023-08-06T06:01:12;11.50;99.90
63960;DHT22;50136;51.374;0.096;2023-08-06T06:11:15;11.70;99.90
63960;DHT22;50136;51.374;0.096;2023-08-06T06:21:17;12.00;99.90
63960;DHT22;50136;51.374;0.096;2023-08-06T06:31:21;12.10;99.90
63960;DHT22;50136;51.374;0.096;2023-08-06T06:41:23;12.30;99.90
63960;DHT22;50136;51.374;0.096;2023-08-06T06:51:26;12.50;99.90
63960;DHT22;50136;51.374;0.096;2023-08-06T07:01:28;12.80;99.90
63960;DHT22;50136;51.374;0.096;2023-08-06T07:11:32;13.00;99.90
63960;DHT22;50136;51.374;0.096;2023-08-06T07:21:34;13.20;99.90
63960;DHT22;50136;51.374;0.096;2023-08-06T07:31:37;13.50;99.90
63960;DHT22;50136;51.374;0.096;2023-08-06T07:41:39;13.70;99.90
63960;DHT22;50136;51.374;0.096;2023-08-06T08:02:28;14.30;99.90
63960;DHT22;50136;51.374;0.096;2023-08-06T08:12:30;14.60;99.90
63960;DHT22;50136;51.374;0.096;2023-08-06T08:22:34;15.00;99.90
63960;DHT22;50136;51.374;0.096;2023-08-06T08:32:36;16.50;99.90
63960;DHT22;50136;51.374;0.096;2023-08-06T08:42:39;19.20;99.90
63960;DHT22;50136;51.374;0.096;2023-08-06T08:52:42;20.50;98.80
63960;DHT22;50136;51.374;0.096;2023-08-06T09:02:46;20.70;97.40
63960;DHT22;50136;51.374;0.096;2023-08-06T09:12:48;22.70;97.80
63960;DHT22;50136;51.374;0.096;2023-08-06T09:22:54;23.20;95.90
63960;DHT22;50136;51.374;0.096;2023-08-06T09:32:56;21.50;96.30
63960;DHT22;50136;51.374;0.096;2023-08-06T09:43:00;21.80;93.70
63960;DHT22;50136;51.374;0.096;2023-08-06T09:53:08;22.10;94.90
63960;DHT22;50136;51.374;0.096;2023-08-06T10:03:11;22.50;94.20
63960;DHT22;50136;51.374;0.096;2023-08-06T10:13:14;22.30;93.30
63960;DHT22;50136;51.374;0.096;2023-08-06T10:23:18;21.00;95.10
63960;DHT22;50136;51.374;0.096;2023-08-06T10:33:20;20.50;94.40
63960;DHT22;50136;51.374;0.096;2023-08-06T10:43:27;20.60;94.30
63960;DHT22;50136;51.374;0.096;2023-08-06T10:53:30;20.50;94.90
63960;DHT22;50136;51.374;0.096;2023-08-06T11:03:38;19.70;95.50
63960;DHT22;50136;51.374;0.096;2023-08-06T11:13:40;20.00;97.90
63960;DHT22;50136;51.374;0.096;2023-08-06T11:23:44;19.20;98.10
63960;DHT22;50136;51.374;0.096;2023-08-06T11:33:46;19.00;99.00
63960;DHT22;50136;51.374;0.096;2023-08-06T11:43:49;18.30;99.60
63960;DHT22;50136;51.374;0.096;2023-08-06T11:53:53;18.20;99.90
63960;DHT22;50136;51.374;0.096;2023-08-06T12:04:00;19.10;99.60
63960;DHT22;50136;51.374;0.096;2023-08-06T12:14:02;20.00;98.50
63960;DHT22;50136;51.374;0.096;2023-08-06T12:24:05;20.20;98.20
63960;DHT22;50136;51.374;0.096;2023-08-06T12:34:07;20.30;97.90
63960;DHT22;50136;51.374;0.096;2023-08-06T12:44:11;19.80;98.70
63960;DHT22;50136;51.374;0.096;2023-08-06T12:54:13;19.20;98.20
63960;DHT22;50136;51.374;0.096;2023-08-06T13:04:17;20.30;98.10
63960;DHT22;50136;51.374;0.096;2023-08-06T13:14:23;20.90;97.80
63960;DHT22;50136;51.374;0.096;2023-08-06T13:24:27;20.30;98.40
63960;DHT22;50136;51.374;0.096;2023-08-06T13:34:29;19.90;98.60
63960;DHT22;50136;51.374;0.096;2023-08-06T13:44:32;19.20;99.00
63960;DHT22;50136;51.374;0.096;2023-08-06T13:54:34;18.50;99.90
63960;DHT22;50136;51.374;0.096;2023-08-06T14:04:38;18.40;99.90
63960;DHT22;50136;51.374;0.096;2023-08-06T14:14:40;18.50;99.90
63960;DHT22;50136;51.374;0.096;2023-08-06T14:24:43;18.80;99.90
63960;DHT22;50136;51.374;0.096;2023-08-06T14:34:45;19.60;99.50
63960;DHT22;50136;51.374;0.096;2023-08-06T14:44:49;20.10;98.20
63960;DHT22;50136;51.374;0.096;2023-08-06T14:54:51;20.10;98.10
63960;DHT22;50136;51.374;0.096;2023-08-06T15:15:00;19.80;98.50
63960;DHT22;50136;51.374;0.096;2023-08-06T15:25:03;19.60;98.10
63960;DHT22;50136;51.374;0.096;2023-08-06T15:35:07;19.10;99.30
63960;DHT22;50136;51.374;0.096;2023-08-06T15:45:16;19.40;99.20
63960;DHT22;50136;51.374;0.096;2023-08-06T15:55:20;19.60;99.40
63960;DHT22;50136;51.374;0.096;2023-08-06T16:05:22;20.60;97.40
63960;DHT22;50136;51.374;0.096;2023-08-06T16:15:26;21.00;97.00
63960;DHT22;50136;51.374;0.096;2023-08-06T16:25:28;20.80;96.80
63960;DHT22;50136;51.374;0.096;2023-08-06T16:35:31;20.70;95.40
63960;DHT22;50136;51.374;0.096;2023-08-06T16:45:36;19.90;96.50
63960;DHT22;50136;51.374;0.096;2023-08-06T16:55:40;19.80;96.60
63960;DHT22;50136;51.374;0.096;2023-08-06T17:05:42;19.50;96.50
63960;DHT22;50136;51.374;0.096;2023-08-06T17:15:46;20.10;96.40
63960;DHT22;50136;51.374;0.096;2023-08-06T17:26:10;20.20;96.50
63960;DHT22;50136;51.374;0.096;2023-08-06T17:36:22;19.80;95.50
63960;DHT22;50136;51.374;0.096;2023-08-06T17:46:30;19.50;96.30
63960;DHT22;50136;51.374;0.096;2023-08-06T17:56:33;19.40;96.80
63960;DHT22;50136;51.374;0.096;2023-08-06T18:06:35;19.50;96.40
63960;DHT22;50136;51.374;0.096;2023-08-06T18:16:39;19.30;96.60
63960;DHT22;50136;51.374;0.096;2023-08-06T18:37:36;19.00;97.40
63960;DHT22;50136;51.374;0.096;2023-08-06T18:47:38;18.70;97.10
63960;DHT22;50136;51.374;0.096;2023-08-06T19:19:20;18.30;97.20
63960;DHT22;50136;51.374;0.096;2023-08-06T19:29:22;18.00;97.60
63960;DHT22;50136;51.374;0.096;2023-08-06T19:39:26;17.70;98.30
63960;DHT22;50136;51.374;0.096;2023-08-06T19:49:28;17.70;98.60
63960;DHT22;50136;51.374;0.096;2023-08-06T19:59:31;17.50;99.10
63960;DHT22;50136;51.374;0.096;2023-08-06T20:09:33;17.40;99.30
63960;DHT22;50136;51.374;0.096;2023-08-06T20:19:36;17.30;99.10
63960;DHT22;50136;51.374;0.096;2023-08-06T20:29:38;17.10;99.90
63960;DHT22;50136;51.374;0.096;2023-08-06T20:39:42;16.90;99.90
63960;DHT22;50136;51.374;0.096;2023-08-06T20:49:44;16.70;99.90
63960;DHT22;50136;51.374;0.096;2023-08-06T20:59:48;16.60;99.90
63960;DHT22;50136;51.374;0.096;2023-08-06T21:09:50;16.50;99.90
63960;DHT22;50136;51.374;0.096;2023-08-06T21:19:53;16.50;99.90
63960;DHT22;50136;51.374;0.096;2023-08-06T21:29:55;16.50;99.90
63960;DHT22;50136;51.374;0.096;2023-08-06T21:39:59;16.30;99.90
63960;DHT22;50136;51.374;0.096;2023-08-06T21:50:01;16.10;99.90
63960;DHT22;50136;51.374;0.096;2023-08-06T22:00:05;16.00;99.90
63960;DHT22;50136;51.374;0.096;2023-08-06T22:10:09;15.80;99.90
63960;DHT22;50136;51.374;0.096;2023-08-06T22:20:12;15.60;99.90
63960;DHT22;50136;51.374;0.096;2023-08-06T22:30:14;15.40;99.90
63960;DHT22;50136;51.374;0.096;2023-08-06T22:40:18;15.10;99.90
63960;DHT22;50136;51.374;0.096;2023-08-06T22:50:20;14.90;99.90
63960;DHT22;50136;51.374;0.096;2023-08-06T23:00:24;14.80;99.90
63960;DHT22;50136;51.374;0.096;2023-08-06T23:10:26;14.60;99.90
63960;DHT22;50136;51.374;0.096;2023-08-06T23:20:29;14.40;99.90
63960;DHT22;50136;51.374;0.096;2023-08-06T23:30:31;14.10;99.90
63960;DHT22;50136;51.374;0.096;2023-08-06T23:40:34;13.90;99.90
63960;DHT22;50136;51.374;0.096;2023-08-06T23:50:36;13.80;99.90
